LAN105 SCSE-SCEL
Flight info
| Callsign | LAN105 |
|---|---|
| Flight time | 0h 38m |
| Altitude | 29000 |
| Route | EDRON5 EDRON UL302 SIMOK SIMOK7B |
| Aircraft | A320/M-SDE3FGHIRWY/LB1 |
Departure
| Time | 2026-04-20 16:11 |
|---|---|
| Airport | La Florida Airport (SCSE) |
Arrival
| Time | 2026-04-20 16:49 |
|---|---|
| Airport | Comodoro Arturo Merino Benítez International Airport (SCEL) |
| Time | Latitude | Longitude | Altitude | Speed | Heading |
|---|---|---|---|---|---|
| 2026-04-20 15:32 | -29.91636 | -71.20402 | 480 ft | 0 kts | 205° |
| 2026-04-20 16:03 | -29.91637 | -71.20403 | 480 ft | 1 kts | 205° |
| 2026-04-20 16:04 | -29.91644 | -71.20401 | 474 ft | 1 kts | 161° |
| 2026-04-20 16:04 | -29.91646 | -71.20392 | 474 ft | 2 kts | 105° |
| 2026-04-20 16:04 | -29.91636 | -71.20368 | 480 ft | 5 kts | 62° |
| 2026-04-20 16:04 | -29.91616 | -71.20331 | 478 ft | 5 kts | 72° |
| 2026-04-20 16:05 | -29.91628 | -71.20287 | 478 ft | 6 kts | 117° |
| 2026-04-20 16:05 | -29.91650 | -71.20238 | 477 ft | 7 kts | 117° |
| 2026-04-20 16:05 | -29.91671 | -71.20182 | 480 ft | 8 kts | 96° |
| 2026-04-20 16:05 | -29.91637 | -71.20138 | 477 ft | 8 kts | 28° |
| 2026-04-20 16:06 | -29.91597 | -71.20083 | 478 ft | 11 kts | 90° |
| 2026-04-20 16:06 | -29.91625 | -71.19995 | 475 ft | 12 kts | 116° |
| 2026-04-20 16:06 | -29.91666 | -71.19900 | 473 ft | 15 kts | 116° |
| 2026-04-20 16:06 | -29.91715 | -71.19785 | 473 ft | 17 kts | 116° |
| 2026-04-20 16:07 | -29.91771 | -71.19653 | 477 ft | 19 kts | 116° |
| 2026-04-20 16:07 | -29.91833 | -71.19509 | 474 ft | 21 kts | 116° |
| 2026-04-20 16:07 | -29.91897 | -71.19359 | 477 ft | 19 kts | 116° |
| 2026-04-20 16:07 | -29.91960 | -71.19216 | 480 ft | 16 kts | 116° |
| 2026-04-20 16:08 | -29.91996 | -71.19143 | 476 ft | 10 kts | 129° |
| 2026-04-20 16:08 | -29.92035 | -71.19105 | 476 ft | 6 kts | 142° |
| 2026-04-20 16:08 | -29.92029 | -71.19069 | 475 ft | 6 kts | 19° |
| 2026-04-20 16:08 | -29.92009 | -71.19093 | 475 ft | 0 kts | 295° |
| 2026-04-20 16:10 | -29.91955 | -71.19222 | 477 ft | 57 kts | 295° |
| 2026-04-20 16:10 | -29.91662 | -71.19908 | 478 ft | 130 kts | 296° |
| 2026-04-20 16:10 | -29.91213 | -71.20979 | 897 ft | 154 kts | 295° |
| 2026-04-20 16:11 | -29.90736 | -71.22128 | 1549 ft | 170 kts | 295° |
| 2026-04-20 16:11 | -29.90196 | -71.23433 | 1943 ft | 192 kts | 294° |
| 2026-04-20 16:11 | -29.89584 | -71.24910 | 2298 ft | 217 kts | 293° |
| 2026-04-20 16:11 | -29.88967 | -71.26595 | 2795 ft | 240 kts | 281° |
| 2026-04-20 16:12 | -29.89132 | -71.28549 | 3358 ft | 256 kts | 242° |
| 2026-04-20 16:12 | -29.90349 | -71.30035 | 4241 ft | 262 kts | 207° |
| 2026-04-20 16:12 | -29.92138 | -71.30465 | 5151 ft | 270 kts | 176° |
| 2026-04-20 16:12 | -29.94026 | -71.30122 | 6036 ft | 279 kts | 169° |
| 2026-04-20 16:13 | -29.95952 | -71.29681 | 6933 ft | 285 kts | 169° |
| 2026-04-20 16:13 | -29.97926 | -71.29226 | 7776 ft | 293 kts | 169° |
| 2026-04-20 16:13 | -29.99268 | -71.28916 | 8333 ft | 299 kts | 169° |
| 2026-04-20 16:13 | -30.01341 | -71.28496 | 9166 ft | 306 kts | 174° |
| 2026-04-20 16:14 | -30.03496 | -71.28342 | 9995 ft | 314 kts | 180° |
| 2026-04-20 16:14 | -30.05747 | -71.28354 | 10457 ft | 335 kts | 183° |
| 2026-04-20 16:14 | -30.08933 | -71.28479 | 11192 ft | 353 kts | 184° |
| 2026-04-20 16:14 | -30.11401 | -71.28602 | 12000 ft | 357 kts | 185° |
| 2026-04-20 16:15 | -30.13091 | -71.28691 | 12583 ft | 360 kts | 185° |
| 2026-04-20 16:15 | -30.15608 | -71.28813 | 13471 ft | 364 kts | 185° |
| 2026-04-20 16:15 | -30.18989 | -71.28951 | 14553 ft | 370 kts | 185° |
| 2026-04-20 16:15 | -30.20698 | -71.29009 | 15076 ft | 372 kts | 185° |
| 2026-04-20 16:16 | -30.23294 | -71.29091 | 15857 ft | 375 kts | 185° |
| 2026-04-20 16:16 | -30.25919 | -71.29171 | 16676 ft | 379 kts | 186° |
| 2026-04-20 16:16 | -30.28567 | -71.29251 | 17473 ft | 382 kts | 186° |
| 2026-04-20 16:16 | -30.31238 | -71.29330 | 18278 ft | 386 kts | 187° |
| 2026-04-20 16:17 | -30.33934 | -71.29411 | 18975 ft | 389 kts | 187° |
| 2026-04-20 16:17 | -30.36652 | -71.29493 | 19672 ft | 392 kts | 187° |
| 2026-04-20 16:17 | -30.39397 | -71.29576 | 20410 ft | 396 kts | 188° |
| 2026-04-20 16:17 | -30.42166 | -71.29662 | 21167 ft | 400 kts | 188° |
| 2026-04-20 16:18 | -30.44967 | -71.29751 | 21918 ft | 404 kts | 189° |
| 2026-04-20 16:18 | -30.47794 | -71.29839 | 22639 ft | 408 kts | 189° |
| 2026-04-20 16:18 | -30.50646 | -71.29930 | 23382 ft | 412 kts | 190° |
| 2026-04-20 16:18 | -30.53548 | -71.29838 | 24042 ft | 425 kts | 181° |
| 2026-04-20 16:19 | -30.56489 | -71.29128 | 24644 ft | 439 kts | 169° |
| 2026-04-20 16:19 | -30.59353 | -71.27752 | 25234 ft | 452 kts | 158° |
| 2026-04-20 16:19 | -30.62141 | -71.26012 | 25810 ft | 457 kts | 158° |
| 2026-04-20 16:19 | -30.64924 | -71.24274 | 26375 ft | 462 kts | 158° |
| 2026-04-20 16:20 | -30.67765 | -71.22501 | 26932 ft | 466 kts | 158° |
| 2026-04-20 16:20 | -30.70641 | -71.20707 | 27489 ft | 471 kts | 158° |
| 2026-04-20 16:20 | -30.73541 | -71.18900 | 28052 ft | 476 kts | 158° |
| 2026-04-20 16:20 | -30.76469 | -71.17073 | 28588 ft | 480 kts | 159° |
| 2026-04-20 16:21 | -30.79426 | -71.15226 | 29098 ft | 485 kts | 158° |
| 2026-04-20 16:21 | -30.82417 | -71.13355 | 29600 ft | 490 kts | 159° |
| 2026-04-20 16:21 | -30.85434 | -71.11468 | 30123 ft | 494 kts | 159° |
| 2026-04-20 16:21 | -30.88471 | -71.09570 | 30567 ft | 498 kts | 159° |
| 2026-04-20 16:22 | -30.91540 | -71.07653 | 30977 ft | 501 kts | 159° |
| 2026-04-20 16:22 | -30.94624 | -71.05725 | 31122 ft | 503 kts | 159° |
| 2026-04-20 16:22 | -30.97662 | -71.03813 | 31153 ft | 489 kts | 159° |
| 2026-04-20 16:22 | -31.00584 | -71.01965 | 31152 ft | 480 kts | 159° |
| 2026-04-20 16:23 | -31.06422 | -70.98284 | 31156 ft | 476 kts | 160° |
| 2026-04-20 16:23 | -31.12270 | -70.94627 | 31164 ft | 477 kts | 160° |
| 2026-04-20 16:24 | -31.18135 | -70.90944 | 31168 ft | 478 kts | 160° |
| 2026-04-20 16:24 | -31.23989 | -70.87245 | 31187 ft | 479 kts | 160° |
| 2026-04-20 16:25 | -31.29851 | -70.83687 | 31204 ft | 472 kts | 167° |
| 2026-04-20 16:25 | -31.32924 | -70.82500 | 31205 ft | 459 kts | 176° |
| 2026-04-20 16:25 | -31.36028 | -70.81866 | 31207 ft | 447 kts | 186° |
| 2026-04-20 16:26 | -31.39095 | -70.81759 | 31210 ft | 434 kts | 194° |
| 2026-04-20 16:26 | -31.42080 | -70.82033 | 31202 ft | 430 kts | 197° |
| 2026-04-20 16:26 | -31.48008 | -70.82621 | 31174 ft | 426 kts | 197° |
| 2026-04-20 16:27 | -31.53931 | -70.83209 | 31172 ft | 428 kts | 197° |
| 2026-04-20 16:27 | -31.59898 | -70.83810 | 31182 ft | 430 kts | 197° |
| 2026-04-20 16:28 | -31.62859 | -70.84096 | 30892 ft | 424 kts | 197° |
| 2026-04-20 16:28 | -31.65801 | -70.84381 | 30430 ft | 423 kts | 197° |
| 2026-04-20 16:28 | -31.68739 | -70.84672 | 29929 ft | 424 kts | 197° |
| 2026-04-20 16:28 | -31.71664 | -70.84964 | 29491 ft | 420 kts | 196° |
| 2026-04-20 16:29 | -31.74553 | -70.85244 | 29060 ft | 418 kts | 194° |
| 2026-04-20 16:29 | -31.77498 | -70.85234 | 28636 ft | 424 kts | 189° |
| 2026-04-20 16:29 | -31.80445 | -70.85121 | 28224 ft | 421 kts | 188° |
| 2026-04-20 16:29 | -31.83329 | -70.85012 | 27823 ft | 419 kts | 188° |
| 2026-04-20 16:30 | -31.86237 | -70.84906 | 27407 ft | 417 kts | 188° |
| 2026-04-20 16:30 | -31.89134 | -70.84805 | 26992 ft | 415 kts | 188° |
| 2026-04-20 16:30 | -31.92013 | -70.84707 | 26576 ft | 413 kts | 188° |
| 2026-04-20 16:30 | -31.94888 | -70.84610 | 26151 ft | 413 kts | 187° |
| 2026-04-20 16:31 | -31.97760 | -70.84512 | 25718 ft | 413 kts | 187° |
| 2026-04-20 16:31 | -32.00629 | -70.84413 | 25273 ft | 413 kts | 187° |
| 2026-04-20 16:31 | -32.03511 | -70.84311 | 24826 ft | 414 kts | 186° |
| 2026-04-20 16:31 | -32.06385 | -70.84208 | 24402 ft | 412 kts | 186° |
| 2026-04-20 16:32 | -32.09243 | -70.84104 | 23955 ft | 411 kts | 186° |
| 2026-04-20 16:32 | -32.12082 | -70.83994 | 23654 ft | 405 kts | 185° |
| 2026-04-20 16:32 | -32.14897 | -70.83887 | 23130 ft | 404 kts | 185° |
| 2026-04-20 16:32 | -32.17665 | -70.83784 | 22683 ft | 401 kts | 185° |
| 2026-04-20 16:33 | -32.20382 | -70.83686 | 22212 ft | 398 kts | 185° |
| 2026-04-20 16:33 | -32.23153 | -70.83590 | 21694 ft | 397 kts | 185° |
| 2026-04-20 16:33 | -32.25906 | -70.83495 | 21198 ft | 396 kts | 185° |
| 2026-04-20 16:33 | -32.28629 | -70.83400 | 21035 ft | 385 kts | 185° |
| 2026-04-20 16:34 | -32.31276 | -70.83304 | 20782 ft | 375 kts | 185° |
| 2026-04-20 16:34 | -32.33861 | -70.83208 | 20120 ft | 370 kts | 184° |
| 2026-04-20 16:34 | -32.36420 | -70.83116 | 19499 ft | 365 kts | 184° |
| 2026-04-20 16:34 | -32.38929 | -70.83024 | 19040 ft | 356 kts | 184° |
| 2026-04-20 16:35 | -32.41372 | -70.82930 | 18637 ft | 347 kts | 183° |
| 2026-04-20 16:35 | -32.43764 | -70.82838 | 18208 ft | 339 kts | 183° |
| 2026-04-20 16:35 | -32.46094 | -70.82753 | 17823 ft | 334 kts | 184° |
| 2026-04-20 16:35 | -32.48361 | -70.82675 | 17445 ft | 334 kts | 183° |
| 2026-04-20 16:36 | -32.50687 | -70.82598 | 17063 ft | 334 kts | 183° |
| 2026-04-20 16:36 | -32.53015 | -70.82521 | 16690 ft | 335 kts | 182° |
| 2026-04-20 16:36 | -32.55353 | -70.82441 | 16316 ft | 337 kts | 183° |
| 2026-04-20 16:36 | -32.57674 | -70.82362 | 15927 ft | 339 kts | 183° |
| 2026-04-20 16:37 | -32.60042 | -70.82279 | 15546 ft | 341 kts | 182° |
| 2026-04-20 16:37 | -32.62418 | -70.82196 | 15164 ft | 343 kts | 182° |
| 2026-04-20 16:37 | -32.64810 | -70.82111 | 14774 ft | 344 kts | 182° |
| 2026-04-20 16:37 | -32.67204 | -70.82023 | 14387 ft | 343 kts | 182° |
| 2026-04-20 16:38 | -32.69589 | -70.81934 | 13999 ft | 344 kts | 181° |
| 2026-04-20 16:38 | -32.71938 | -70.81842 | 13826 ft | 327 kts | 181° |
| 2026-04-20 16:38 | -32.74166 | -70.81751 | 13453 ft | 317 kts | 181° |
| 2026-04-20 16:38 | -32.76319 | -70.81671 | 13160 ft | 312 kts | 182° |
| 2026-04-20 16:39 | -32.78485 | -70.81592 | 12883 ft | 311 kts | 182° |
| 2026-04-20 16:39 | -32.80658 | -70.81513 | 12436 ft | 313 kts | 181° |
| 2026-04-20 16:39 | -32.82825 | -70.81433 | 11961 ft | 310 kts | 181° |
| 2026-04-20 16:39 | -32.84971 | -70.81355 | 11502 ft | 308 kts | 181° |
| 2026-04-20 16:40 | -32.87104 | -70.81278 | 11130 ft | 305 kts | 181° |
| 2026-04-20 16:40 | -32.89221 | -70.81202 | 10692 ft | 303 kts | 180° |
| 2026-04-20 16:40 | -32.91316 | -70.81126 | 10299 ft | 299 kts | 181° |
| 2026-04-20 16:40 | -32.93376 | -70.81319 | 9793 ft | 295 kts | 190° |
| 2026-04-20 16:41 | -32.95390 | -70.81631 | 9267 ft | 291 kts | 189° |
| 2026-04-20 16:41 | -32.97385 | -70.81934 | 8766 ft | 287 kts | 189° |
| 2026-04-20 16:41 | -32.99350 | -70.82229 | 8284 ft | 283 kts | 189° |
| 2026-04-20 16:41 | -33.01300 | -70.82361 | 7791 ft | 279 kts | 178° |
| 2026-04-20 16:42 | -33.03223 | -70.82216 | 7312 ft | 275 kts | 176° |
| 2026-04-20 16:42 | -33.05119 | -70.82082 | 6935 ft | 270 kts | 178° |
| 2026-04-20 16:42 | -33.06996 | -70.81981 | 6535 ft | 269 kts | 178° |
| 2026-04-20 16:42 | -33.08856 | -70.81885 | 6084 ft | 266 kts | 178° |
| 2026-04-20 16:43 | -33.10690 | -70.81788 | 5649 ft | 262 kts | 178° |
| 2026-04-20 16:43 | -33.12468 | -70.81693 | 5504 ft | 250 kts | 178° |
| 2026-04-20 16:43 | -33.14162 | -70.81602 | 5385 ft | 238 kts | 178° |
| 2026-04-20 16:43 | -33.15774 | -70.81516 | 5279 ft | 226 kts | 178° |
| 2026-04-20 16:44 | -33.17281 | -70.81436 | 5210 ft | 215 kts | 178° |
| 2026-04-20 16:44 | -33.18743 | -70.81358 | 5149 ft | 205 kts | 178° |
| 2026-04-20 16:44 | -33.20150 | -70.81283 | 4981 ft | 201 kts | 178° |
| 2026-04-20 16:44 | -33.21543 | -70.81209 | 4737 ft | 200 kts | 178° |
| 2026-04-20 16:45 | -33.22926 | -70.81135 | 4482 ft | 198 kts | 178° |
| 2026-04-20 16:45 | -33.24290 | -70.81062 | 4228 ft | 194 kts | 178° |
| 2026-04-20 16:45 | -33.25631 | -70.80991 | 3977 ft | 191 kts | 178° |
| 2026-04-20 16:45 | -33.26944 | -70.80920 | 3724 ft | 186 kts | 178° |
| 2026-04-20 16:46 | -33.28189 | -70.80853 | 3486 ft | 171 kts | 178° |
| 2026-04-20 16:46 | -33.29332 | -70.80792 | 3249 ft | 158 kts | 178° |
| 2026-04-20 16:46 | -33.30389 | -70.80736 | 3011 ft | 147 kts | 178° |
| 2026-04-20 16:46 | -33.31395 | -70.80682 | 2793 ft | 143 kts | 177° |
| 2026-04-20 16:47 | -33.32385 | -70.80629 | 2569 ft | 141 kts | 176° |
| 2026-04-20 16:47 | -33.33354 | -70.80578 | 2362 ft | 139 kts | 176° |
| 2026-04-20 16:47 | -33.34317 | -70.80524 | 2156 ft | 138 kts | 175° |
| 2026-04-20 16:47 | -33.35266 | -70.80475 | 2012 ft | 136 kts | 176° |
| 2026-04-20 16:48 | -33.36203 | -70.80425 | 1807 ft | 134 kts | 176° |
| 2026-04-20 16:48 | -33.37118 | -70.80375 | 1627 ft | 133 kts | 176° |
| 2026-04-20 16:48 | -33.37973 | -70.80330 | 1573 ft | 103 kts | 178° |
| 2026-04-20 16:48 | -33.38516 | -70.80302 | 1573 ft | 53 kts | 177° |
| 2026-04-20 16:49 | -33.38831 | -70.80286 | 1574 ft | 43 kts | 177° |
| 2026-04-20 16:49 | -33.39117 | -70.80271 | 1573 ft | 39 kts | 177° |
| 2026-04-20 16:49 | -33.39326 | -70.80200 | 1571 ft | 25 kts | 150° |
| 2026-04-20 16:49 | -33.39413 | -70.80136 | 1568 ft | 13 kts | 148° |
| 2026-04-20 16:50 | -33.39496 | -70.80068 | 1566 ft | 11 kts | 138° |
| 2026-04-20 16:50 | -33.39530 | -70.79974 | 1565 ft | 14 kts | 95° |
| 2026-04-20 16:50 | -33.39527 | -70.79840 | 1565 ft | 18 kts | 88° |
| 2026-04-20 16:50 | -33.39521 | -70.79686 | 1565 ft | 19 kts | 86° |
| 2026-04-20 16:51 | -33.39515 | -70.79547 | 1564 ft | 9 kts | 90° |
| 2026-04-20 16:51 | -33.39563 | -70.79533 | 1564 ft | 7 kts | 185° |
| 2026-04-20 16:51 | -33.39599 | -70.79533 | 1564 ft | 3 kts | 178° |
| 2026-04-20 16:51 | -33.39600 | -70.79533 | 1564 ft | 0 kts | 178° |
| 2026-04-20 16:59 | -33.39601 | -70.79523 | 1565 ft | 3 kts | 90° |
| 2026-04-20 16:59 | -33.39541 | -70.79273 | 1565 ft | 80 kts | 81° |
| 2026-04-20 16:59 | -33.39522 | -70.78248 | 1752 ft | 148 kts | 94° |
| 2026-04-20 16:59 | -33.39529 | -70.77094 | 3093 ft | 128 kts | 93° |
| 2026-04-20 17:00 | -33.39270 | -70.74254 | 3957 ft | 228 kts | 57° |
| 2026-04-20 17:00 | -33.38227 | -70.72609 | 3859 ft | 256 kts | 53° |
| 2026-04-20 17:00 | -33.37238 | -70.70889 | 3633 ft | 248 kts | 62° |
| 2026-04-20 17:01 | -33.36260 | -70.69340 | 3809 ft | 219 kts | 46° |
| 2026-04-20 17:01 | -33.35694 | -70.67940 | 3978 ft | 184 kts | 107° |
| 2026-04-20 17:01 | -33.36549 | -70.66733 | 3658 ft | 225 kts | 137° |
| 2026-04-20 17:01 | -33.37692 | -70.65145 | 3926 ft | 265 kts | 119° |
| 2026-04-20 17:02 | -33.38377 | -70.63212 | 4295 ft | 235 kts | 111° |
| 2026-04-20 17:02 | -33.38653 | -70.61388 | 4371 ft | 215 kts | 85° |
| 2026-04-20 17:02 | -33.38552 | -70.59695 | 4250 ft | 194 kts | 86° |
| 2026-04-20 17:02 | -33.38560 | -70.58078 | 4142 ft | 197 kts | 101° |
| 2026-04-20 17:03 | -33.39171 | -70.56668 | 4025 ft | 186 kts | 134° |
| 2026-04-20 17:03 | -33.40108 | -70.55685 | 3856 ft | 173 kts | 140° |
| 2026-04-20 17:03 | -33.40979 | -70.54839 | 3702 ft | 150 kts | 146° |
| 2026-04-20 17:03 | -33.41583 | -70.54436 | 3589 ft | 150 kts | 158° |
| 2026-04-20 17:04 | -33.42537 | -70.54039 | 3279 ft | 141 kts | 172° |
| 2026-04-20 17:04 | -33.43482 | -70.54064 | 2939 ft | 133 kts | 194° |
| 2026-04-20 17:04 | -33.44381 | -70.54314 | 2633 ft | 133 kts | 196° |
| 2026-04-20 17:04 | -33.45268 | -70.54563 | 2291 ft | 126 kts | 193° |
| 2026-04-20 17:05 | -33.45719 | -70.54687 | 2286 ft | 25 kts | 195° |
| 2026-04-20 17:05 | -33.45735 | -70.54692 | 2284 ft | 0 kts | 195° |
| 2026-04-20 17:05 | -33.45739 | -70.54697 | 2286 ft | 1 kts | 229° |
| 2026-04-20 17:05 | -33.45722 | -70.54700 | 2287 ft | 0 kts | 8° |
| 2026-04-20 17:06 | -33.45594 | -70.54662 | 2283 ft | 67 kts | 14° |
| 2026-04-20 17:06 | -33.44820 | -70.54446 | 2413 ft | 145 kts | 13° |
| 2026-04-20 17:07 | -33.43902 | -70.54383 | 3432 ft | 130 kts | 327° |
| 2026-04-20 17:07 | -33.43387 | -70.55252 | 4048 ft | 147 kts | 294° |
| 2026-04-20 17:07 | -33.42879 | -70.56592 | 4155 ft | 196 kts | 293° |
| 2026-04-20 17:07 | -33.42289 | -70.58197 | 4157 ft | 221 kts | 294° |
| 2026-04-20 17:08 | -33.41639 | -70.59869 | 4150 ft | 221 kts | 296° |
| 2026-04-20 17:08 | -33.40944 | -70.61502 | 4188 ft | 220 kts | 298° |
| 2026-04-20 17:08 | -33.40308 | -70.63182 | 4245 ft | 239 kts | 280° |
| 2026-04-20 17:08 | -33.40447 | -70.65371 | 4279 ft | 290 kts | 257° |
| 2026-04-20 17:09 | -33.40906 | -70.67875 | 4214 ft | 323 kts | 258° |
| 2026-04-20 17:09 | -33.41453 | -70.70580 | 4088 ft | 341 kts | 248° |
| 2026-04-20 17:09 | -33.42732 | -70.72638 | 3869 ft | 280 kts | 218° |
| 2026-04-20 17:09 | -33.44115 | -70.73917 | 3597 ft | 235 kts | 213° |
| 2026-04-20 17:10 | -33.45500 | -70.74602 | 3434 ft | 200 kts | 213° |
| 2026-04-20 17:10 | -33.46129 | -70.75919 | 3299 ft | 182 kts | 271° |
| 2026-04-20 17:10 | -33.45613 | -70.77123 | 3134 ft | 156 kts | 317° |
| 2026-04-20 17:10 | -33.44808 | -70.77867 | 2968 ft | 138 kts | 324° |
| 2026-04-20 17:11 | -33.43944 | -70.78281 | 2649 ft | 134 kts | 348° |
| 2026-04-20 17:11 | -33.42954 | -70.78380 | 2589 ft | 144 kts | 358° |
| 2026-04-20 17:11 | -33.41962 | -70.78459 | 2156 ft | 147 kts | 12° |
| 2026-04-20 17:11 | -33.40945 | -70.78515 | 1723 ft | 144 kts | 16° |
| 2026-04-20 17:12 | -33.40006 | -70.78550 | 1567 ft | 122 kts | 1° |
| 2026-04-20 17:12 | -33.39271 | -70.78568 | 1567 ft | 92 kts | 357° |
| 2026-04-20 17:12 | -33.38694 | -70.78611 | 1564 ft | 76 kts | 357° |
| 2026-04-20 17:12 | -33.38190 | -70.78639 | 1564 ft | 70 kts | 357° |
| 2026-04-20 17:13 | -33.37817 | -70.78657 | 1564 ft | 9 kts | 358° |
| 2026-04-20 17:13 | -33.37815 | -70.78657 | 1564 ft | 0 kts | 358° |
| 2026-04-20 17:13 | -33.37811 | -70.78664 | 1564 ft | 3 kts | 300° |
| 2026-04-20 17:14 | -33.37829 | -70.78667 | 1564 ft | 0 kts | 181° |
| 2026-04-20 17:15 | -33.37884 | -70.78664 | 1564 ft | 42 kts | 176° |
| 2026-04-20 17:15 | -33.38543 | -70.78621 | 1567 ft | 141 kts | 179° |
| 2026-04-20 17:15 | -33.39723 | -70.78561 | 1897 ft | 174 kts | 179° |
| 2026-04-20 17:15 | -33.40829 | -70.78552 | 3297 ft | 174 kts | 171° |
| 2026-04-20 17:16 | -33.41864 | -70.77579 | 3736 ft | 218 kts | 116° |
| 2026-04-20 17:16 | -33.42275 | -70.75654 | 4028 ft | 265 kts | 108° |
| 2026-04-20 17:16 | -33.43139 | -70.73515 | 4190 ft | 304 kts | 121° |
| 2026-04-20 17:16 | -33.44326 | -70.71314 | 4181 ft | 332 kts | 124° |
| 2026-04-20 17:17 | -33.45634 | -70.68943 | 4154 ft | 350 kts | 123° |
| 2026-04-20 17:17 | -33.46990 | -70.66418 | 4070 ft | 361 kts | 122° |
| 2026-04-20 17:17 | -33.48383 | -70.63884 | 3983 ft | 367 kts | 128° |
| 2026-04-20 17:17 | -33.49851 | -70.61608 | 3969 ft | 317 kts | 127° |
| 2026-04-20 17:18 | -33.51043 | -70.59621 | 3959 ft | 271 kts | 117° |
| 2026-04-20 17:18 | -33.51369 | -70.57690 | 4086 ft | 216 kts | 79° |
| 2026-04-20 17:18 | -33.50805 | -70.56186 | 3816 ft | 187 kts | 52° |
| 2026-04-20 17:18 | -33.49819 | -70.55365 | 3692 ft | 162 kts | 11° |
| 2026-04-20 17:19 | -33.48734 | -70.55415 | 3324 ft | 156 kts | 355° |
| 2026-04-20 17:19 | -33.47654 | -70.55252 | 2783 ft | 159 kts | 13° |
| 2026-04-20 17:19 | -33.46604 | -70.54951 | 2390 ft | 149 kts | 10° |
| 2026-04-20 17:19 | -33.45706 | -70.54694 | 2259 ft | 82 kts | 14° |
| 2026-04-20 17:20 | -33.45553 | -70.54649 | 2256 ft | 0 kts | 13° |
| 2026-04-20 17:20 | -33.45552 | -70.54649 | 2256 ft | 0 kts | 13° |
| 2026-04-20 17:20 | -33.45551 | -70.54649 | 2256 ft | 0 kts | 13° |